Terminal Aerodrome Forecast
Issued by NWS Missoula, MT

Home | Current Version | Previous Version | Text Only | Print | Product List | Glossary On
Versions: 1 2 3 4 5 6 7 8 9 10 11 12 13 14 15 16 17 18 19 20 21 22
484
FTUS45 KMSO 202326
TAFBTM
TAF
KBTM 202326Z 2100/2124 30013G23KT P6SM -SHRASN SCT020 BKN030 OVC070
     FM210300 29007KT P6SM SCT020 BKN050
     FM211200 VRB03KT 6SM BR SCT015 BKN030
     FM211600 VRB05KT P6SM BKN040=

USA.gov is the U.S. government's official web portal to all federal, state and local government web resources and services.